Time;durP1;ratioP1;P1;durP2;ratioP2;P2;SDS_P1;SDS_P2;PMS_P1;PMS_P2;Temp;Humidity;BMP_temperature;BMP_pressure;BME280_temperature;BME280_humidity;BME280_pressure;Samples;Min_cycle;Max_cycle;Signal;HPM_P1;HPM_P2
2023/12/17 00:01:11;;;;;;;10.02;7.55;;;4.20;99.90;;;;;;5011230;28;20077;-79
2023/12/17 00:03:38;;;;;;;9.00;7.13;;;4.10;99.90;;;;;;5011253;28;20095;-77
2023/12/17 00:06:06;;;;;;;9.27;6.95;;;4.10;99.90;;;;;;5010724;28;20037;-80
2023/12/17 00:08:33;;;;;;;10.68;7.18;;;4.10;99.90;;;;;;5010898;28;20092;-78
2023/12/17 00:11:01;;;;;;;7.82;6.82;;;4.20;99.90;;;;;;5007009;28;20477;-82
2023/12/17 00:13:28;;;;;;;12.05;7.82;;;4.30;99.90;;;;;;5007686;28;20474;-78
2023/12/17 00:15:55;;;;;;;11.15;7.45;;;4.10;99.90;;;;;;5009325;28;20033;-78
2023/12/17 00:18:23;;;;;;;9.35;7.63;;;4.10;99.90;;;;;;5011076;28;20073;-77
2023/12/17 00:20:50;;;;;;;8.00;6.40;;;4.10;99.90;;;;;;5009676;28;20053;-77
2023/12/17 00:23:17;;;;;;;10.77;7.35;;;4.20;99.90;;;;;;5010605;28;20053;-79
2023/12/17 00:25:45;;;;;;;13.27;9.48;;;4.20;99.90;;;;;;5010598;28;20041;-77
2023/12/17 00:28:12;;;;;;;11.00;7.85;;;4.20;99.90;;;;;;5010705;28;20030;-78
2023/12/17 00:30:39;;;;;;;10.50;8.35;;;4.30;99.90;;;;;;5011021;28;20041;-78
2023/12/17 00:33:07;;;;;;;9.93;7.45;;;4.20;99.90;;;;;;5009822;28;20033;-77
2023/12/17 00:35:34;;;;;;;8.02;7.13;;;4.10;99.90;;;;;;5009796;28;20128;-78
2023/12/17 00:38:02;;;;;;;7.05;6.20;;;4.10;99.90;;;;;;5010248;28;20076;-80
2023/12/17 00:40:29;;;;;;;7.53;6.40;;;4.10;99.90;;;;;;5010464;28;20060;-77
2023/12/17 00:42:57;;;;;;;9.77;7.45;;;4.10;99.90;;;;;;5009805;28;20367;-78
2023/12/17 00:45:24;;;;;;;10.15;7.10;;;4.10;99.90;;;;;;5005667;28;20056;-77
2023/12/17 00:47:52;;;;;;;9.00;7.38;;;4.10;99.90;;;;;;5010044;28;20040;-78
2023/12/17 00:50:20;;;;;;;8.02;6.80;;;4.10;99.90;;;;;;5009789;28;20440;-76
2023/12/17 00:52:47;;;;;;;9.13;6.80;;;4.10;99.90;;;;;;5009648;28;20112;-77
2023/12/17 00:55:14;;;;;;;8.45;7.18;;;4.00;99.90;;;;;;5014106;28;20040;-78
2023/12/17 00:57:41;;;;;;;10.13;7.53;;;4.10;99.90;;;;;;4992250;28;20044;-76
2023/12/17 01:00:09;;;;;;;12.75;7.80;;;4.10;99.90;;;;;;5009473;28;20655;-78
2023/12/17 01:02:37;;;;;;;8.98;6.60;;;4.10;99.90;;;;;;5010161;28;20052;-80
2023/12/17 01:05:05;;;;;;;31.40;14.82;;;4.00;99.90;;;;;;5010655;28;20061;-78
2023/12/17 01:07:34;;;;;;;11.05;8.25;;;4.10;99.90;;;;;;5010752;28;20079;-80
2023/12/17 01:10:01;;;;;;;8.70;7.80;;;4.00;99.90;;;;;;5010051;28;20501;-80
2023/12/17 01:12:28;;;;;;;11.75;7.90;;;4.00;99.90;;;;;;5005652;28;20424;-80
2023/12/17 01:14:55;;;;;;;9.65;7.57;;;4.00;99.90;;;;;;5002964;28;20030;-79
2023/12/17 01:17:23;;;;;;;9.07;7.13;;;4.00;99.90;;;;;;5009857;28;20068;-78
2023/12/17 01:19:50;;;;;;;8.82;6.55;;;4.10;99.90;;;;;;5009694;28;20034;-81
2023/12/17 01:22:19;;;;;;;7.57;6.40;;;4.10;99.90;;;;;;5009481;28;20050;-79
2023/12/17 01:24:49;;;;;;;9.05;7.28;;;4.00;99.90;;;;;;5009466;28;20045;-78
2023/12/17 01:27:16;;;;;;;7.78;6.55;;;4.00;99.90;;;;;;5010396;28;20034;-79
2023/12/17 01:29:44;;;;;;;13.93;10.70;;;4.00;99.90;;;;;;5008971;28;20044;-78
2023/12/17 01:32:11;;;;;;;11.00;8.02;;;4.00;99.90;;;;;;5005987;28;20026;-77
2023/12/17 01:34:38;;;;;;;10.02;7.60;;;4.00;99.90;;;;;;5009707;28;20037;-77
2023/12/17 01:37:05;;;;;;;7.45;6.43;;;4.00;99.90;;;;;;5009695;28;20821;-77
2023/12/17 01:39:33;;;;;;;8.68;6.90;;;3.90;99.90;;;;;;4992267;28;20045;-78
2023/12/17 01:42:00;;;;;;;10.50;6.70;;;3.90;99.90;;;;;;5009128;28;20028;-77
2023/12/17 01:44:27;;;;;;;8.52;7.32;;;3.90;99.90;;;;;;5010052;28;20045;-85
2023/12/17 01:46:57;;;;;;;8.63;7.45;;;3.90;99.90;;;;;;5008547;28;20088;-85
2023/12/17 01:49:25;;;;;;;10.30;7.50;;;3.90;99.90;;;;;;4988100;28;20143;-81
2023/12/17 01:51:53;;;;;;;9.18;7.50;;;3.90;99.90;;;;;;5009862;28;20030;-77
2023/12/17 01:54:20;;;;;;;10.02;7.32;;;3.90;99.90;;;;;;5010014;28;20436;-82
2023/12/17 01:56:48;;;;;;;12.55;8.60;;;3.90;99.90;;;;;;4978147;28;20058;-82
2023/12/17 01:59:17;;;;;;;9.75;8.05;;;4.00;99.90;;;;;;5009739;28;20038;-77
2023/12/17 02:01:48;;;;;;;11.88;9.32;;;4.00;99.90;;;;;;4990975;28;20062;-78
2023/12/17 02:04:15;;;;;;;8.68;7.00;;;4.00;99.90;;;;;;5012904;28;20440;-77
2023/12/17 02:06:43;;;;;;;8.77;7.47;;;4.00;99.90;;;;;;5013666;28;20033;-76
2023/12/17 02:09:10;;;;;;;8.20;7.35;;;4.00;99.90;;;;;;4991763;28;20475;-77
2023/12/17 02:11:37;;;;;;;9.73;7.45;;;4.00;99.90;;;;;;5013487;28;20038;-76
2023/12/17 02:14:05;;;;;;;10.45;7.40;;;4.00;99.90;;;;;;4995264;28;20062;-75
2023/12/17 02:16:32;;;;;;;11.93;7.75;;;3.90;99.90;;;;;;5013249;28;20222;-77
2023/12/17 02:19:01;;;;;;;10.13;6.90;;;3.90;99.90;;;;;;5011675;28;20034;-77
2023/12/17 02:21:29;;;;;;;10.90;7.20;;;3.90;99.90;;;;;;5013421;28;20141;-76
2023/12/17 02:23:56;;;;;;;10.25;7.57;;;4.00;99.90;;;;;;5012799;28;20061;-77
2023/12/17 02:26:23;;;;;;;10.23;7.75;;;4.00;99.90;;;;;;5012925;28;20037;-75
2023/12/17 02:28:50;;;;;;;9.45;7.47;;;3.90;99.90;;;;;;5012117;28;20048;-76
2023/12/17 02:31:18;;;;;;;8.50;6.97;;;4.00;99.90;;;;;;5012432;28;20389;-75
2023/12/17 02:33:46;;;;;;;8.98;7.05;;;3.90;99.90;;;;;;4996584;28;20128;-78
2023/12/17 02:36:14;;;;;;;9.68;6.93;;;3.90;99.90;;;;;;4994425;28;20030;-76
2023/12/17 02:38:41;;;;;;;10.43;7.30;;;3.90;99.90;;;;;;5012827;28;20042;-79
2023/12/17 02:41:09;;;;;;;10.02;7.50;;;3.80;99.90;;;;;;5006757;28;20026;-83
2023/12/17 02:43:36;;;;;;;8.88;7.35;;;3.80;99.90;;;;;;5013065;28;20042;-84
2023/12/17 02:46:04;;;;;;;8.55;7.55;;;3.90;99.90;;;;;;5011741;28;20422;-83
2023/12/17 02:48:33;;;;;;;8.70;6.88;;;3.80;99.90;;;;;;5012763;28;20108;-79
2023/12/17 02:51:00;;;;;;;8.70;6.97;;;3.80;99.90;;;;;;4993437;28;20472;-81
2023/12/17 02:53:30;;;;;;;7.57;6.88;;;3.80;99.90;;;;;;5013115;28;20049;-79
2023/12/17 02:56:00;;;;;;;10.38;7.32;;;3.80;99.90;;;;;;5012996;28;20126;-85
2023/12/17 02:58:27;;;;;;;10.07;7.32;;;3.90;99.90;;;;;;4990142;28;20465;-81
2023/12/17 03:00:54;;;;;;;10.35;7.50;;;3.80;99.90;;;;;;5012498;28;20040;-82
2023/12/17 03:03:21;;;;;;;9.50;7.13;;;3.90;99.90;;;;;;5013101;28;20057;-83
2023/12/17 03:05:49;;;;;;;10.15;7.85;;;4.00;99.90;;;;;;5012155;28;20412;-80
2023/12/17 03:08:16;;;;;;;9.90;7.38;;;3.90;99.90;;;;;;5013005;28;20030;-84
2023/12/17 03:10:44;;;;;;;10.38;7.53;;;3.90;99.90;;;;;;5013112;28;20034;-82
2023/12/17 03:13:11;;;;;;;8.63;7.10;;;3.80;99.90;;;;;;4991504;28;20135;-82
2023/12/17 03:15:38;;;;;;;8.77;7.10;;;3.80;99.90;;;;;;5012021;28;20038;-81
2023/12/17 03:18:06;;;;;;;9.25;7.53;;;3.70;99.90;;;;;;5012266;28;20139;-81
2023/12/17 03:20:33;;;;;;;8.80;6.50;;;3.70;99.90;;;;;;5012402;28;20072;-81
2023/12/17 03:23:00;;;;;;;7.32;6.55;;;3.70;99.90;;;;;;4989756;28;20034;-81
2023/12/17 03:25:28;;;;;;;8.60;7.05;;;3.70;99.90;;;;;;5012137;28;20120;-81
2023/12/17 03:27:55;;;;;;;9.85;7.20;;;3.70;99.90;;;;;;4994670;28;20066;-79
2023/12/17 03:30:22;;;;;;;9.07;7.00;;;3.70;99.90;;;;;;5011988;28;20041;-81
2023/12/17 03:32:49;;;;;;;9.77;7.05;;;3.80;99.90;;;;;;4990684;28;20040;-79
2023/12/17 03:35:17;;;;;;;8.70;7.00;;;3.70;99.90;;;;;;5012173;28;20034;-80
2023/12/17 03:37:44;;;;;;;8.45;7.47;;;3.80;99.90;;;;;;5011906;28;20041;-78
2023/12/17 03:40:13;;;;;;;8.32;6.75;;;3.80;99.90;;;;;;4990913;28;20777;-78
2023/12/17 03:42:40;;;;;;;10.25;7.88;;;3.70;99.90;;;;;;4995022;28;20037;-77
2023/12/17 03:45:08;;;;;;;9.48;7.50;;;3.70;99.90;;;;;;4997040;28;20065;-78
2023/12/17 03:47:41;;;;;;;9.85;7.88;;;3.80;99.90;;;;;;5011808;28;20041;-77
2023/12/17 03:50:09;;;;;;;8.88;7.78;;;3.80;99.90;;;;;;5011487;28;20943;-78
2023/12/17 03:52:36;;;;;;;9.80;7.85;;;3.90;99.90;;;;;;5011433;28;20524;-79
2023/12/17 03:55:04;;;;;;;8.15;7.05;;;3.90;99.90;;;;;;5011437;28;20034;-82
2023/12/17 03:57:31;;;;;;;9.68;7.60;;;3.90;99.90;;;;;;5011557;28;20388;-79
2023/12/17 03:59:58;;;;;;;10.10;7.57;;;3.80;99.90;;;;;;5007685;28;20037;-78
2023/12/17 04:02:27;;;;;;;9.63;7.55;;;3.90;99.90;;;;;;5011794;28;20073;-79
2023/12/17 04:04:54;;;;;;;9.60;7.28;;;3.80;99.90;;;;;;5011140;28;20132;-78
2023/12/17 04:07:22;;;;;;;10.65;7.80;;;3.80;99.90;;;;;;5011614;28;20042;-79
2023/12/17 04:09:49;;;;;;;9.77;7.20;;;3.80;99.90;;;;;;5009939;28;20049;-79
2023/12/17 04:12:16;;;;;;;10.45;7.38;;;3.80;99.90;;;;;;5011198;28;20088;-78
2023/12/17 04:14:43;;;;;;;11.43;7.57;;;3.70;99.90;;;;;;5011274;28;20038;-79
2023/12/17 04:17:11;;;;;;;8.82;7.63;;;3.70;99.90;;;;;;5011148;28;20041;-81
2023/12/17 04:19:38;;;;;;;7.55;6.68;;;3.70;99.90;;;;;;5011221;28;20104;-81
2023/12/17 04:22:06;;;;;;;8.70;6.85;;;3.70;99.90;;;;;;5010924;28;20069;-81
2023/12/17 04:24:33;;;;;;;9.23;7.40;;;3.70;99.90;;;;;;5011368;28;20041;-80
2023/12/17 04:27:00;;;;;;;10.43;8.02;;;3.80;99.90;;;;;;5010607;28;20049;-79
2023/12/17 04:29:27;;;;;;;10.90;8.30;;;3.70;99.90;;;;;;5010756;28;20037;-82
2023/12/17 04:31:57;;;;;;;10.98;7.75;;;3.70;99.90;;;;;;5011011;28;20448;-80
2023/12/17 04:34:24;;;;;;;10.07;8.18;;;3.70;99.90;;;;;;5011214;28;20434;-79
2023/12/17 04:36:52;;;;;;;8.82;6.95;;;3.60;99.90;;;;;;5010877;28;20041;-79
2023/12/17 04:39:20;;;;;;;10.00;7.05;;;3.70;99.90;;;;;;5007246;28;20154;-79
2023/12/17 04:41:47;;;;;;;8.77;7.05;;;3.60;99.90;;;;;;5011232;28;20044;-80
2023/12/17 04:44:15;;;;;;;10.27;7.47;;;3.60;99.90;;;;;;5010472;28;20460;-79
2023/12/17 04:46:42;;;;;;;8.80;7.15;;;3.50;99.90;;;;;;5010675;28;20057;-79
2023/12/17 04:49:09;;;;;;;7.70;6.68;;;3.60;99.90;;;;;;5010031;28;20040;-79
2023/12/17 04:51:37;;;;;;;8.85;7.15;;;3.70;99.90;;;;;;4993050;28;20085;-79
2023/12/17 04:54:04;;;;;;;9.40;6.78;;;3.70;99.90;;;;;;5010259;28;20033;-78
2023/12/17 04:56:31;;;;;;;9.77;7.57;;;3.60;99.90;;;;;;5006761;28;20079;-79
2023/12/17 04:58:59;;;;;;;10.32;7.32;;;3.50;99.90;;;;;;5009830;28;20025;-78
2023/12/17 05:01:26;;;;;;;9.18;7.10;;;3.50;99.90;;;;;;5010737;28;20036;-77
2023/12/17 05:03:53;;;;;;;9.07;7.35;;;3.60;99.90;;;;;;5009456;28;20038;-78
2023/12/17 05:06:20;;;;;;;9.63;8.45;;;3.60;99.90;;;;;;4992877;28;20034;-77
2023/12/17 05:08:48;;;;;;;10.18;7.65;;;3.50;99.90;;;;;;5010083;28;20057;-76
2023/12/17 05:11:15;;;;;;;11.02;7.70;;;3.60;99.90;;;;;;4993217;28;20040;-77
2023/12/17 05:13:42;;;;;;;12.02;8.15;;;3.50;99.90;;;;;;5010035;28;20108;-77
2023/12/17 05:16:10;;;;;;;10.52;7.70;;;3.50;99.90;;;;;;5009331;28;20112;-76
2023/12/17 05:18:37;;;;;;;9.50;7.18;;;3.50;99.90;;;;;;5009642;28;20069;-76
2023/12/17 05:21:06;;;;;;;13.35;8.30;;;3.50;99.90;;;;;;4989365;28;20033;-82
2023/12/17 05:23:33;;;;;;;7.35;6.55;;;3.50;99.90;;;;;;4987665;28;20042;-78
2023/12/17 05:26:00;;;;;;;9.18;7.25;;;3.40;99.90;;;;;;5009015;28;20112;-79
2023/12/17 05:28:27;;;;;;;10.98;8.10;;;3.40;99.90;;;;;;5009790;28;20041;-79
2023/12/17 05:30:55;;;;;;;11.45;8.80;;;3.40;99.90;;;;;;4992293;28;20468;-78
2023/12/17 05:33:22;;;;;;;10.10;7.22;;;3.50;99.90;;;;;;5010085;28;20049;-78
2023/12/17 05:35:51;;;;;;;13.10;7.97;;;3.50;99.90;;;;;;5010017;28;20034;-82
2023/12/17 05:38:19;;;;;;;12.23;7.72;;;3.50;99.90;;;;;;4996952;28;20046;-81
2023/12/17 05:40:47;;;;;;;10.18;7.75;;;3.60;99.90;;;;;;5014139;28;20064;-79
2023/12/17 05:43:14;;;;;;;8.65;7.03;;;3.40;99.90;;;;;;4976643;28;20044;-77
2023/12/17 05:45:42;;;;;;;9.07;7.75;;;3.30;99.90;;;;;;5013685;28;20115;-80
2023/12/17 05:48:24;;;;;;;10.32;7.50;;;3.30;99.90;;;;;;5012881;28;20034;-79
2023/12/17 05:50:51;;;;;;;10.90;8.63;;;3.30;99.90;;;;;;5013614;28;20038;-79
2023/12/17 05:53:18;;;;;;;11.07;7.43;;;3.40;99.90;;;;;;5013990;28;20034;-79
2023/12/17 05:55:53;;;;;;;11.75;7.65;;;3.30;99.90;;;;;;5013241;28;20478;-79
2023/12/17 05:58:21;;;;;;;11.55;7.82;;;3.30;99.90;;;;;;4993296;28;20042;-77
2023/12/17 06:00:48;;;;;;;9.90;8.05;;;3.20;99.90;;;;;;5013745;28;20030;-77
2023/12/17 06:03:15;;;;;;;9.18;7.63;;;3.30;99.90;;;;;;5013671;28;20037;-77
2023/12/17 06:05:43;;;;;;;13.00;8.63;;;3.30;99.90;;;;;;5013446;28;20041;-78
2023/12/17 06:08:11;;;;;;;12.38;8.00;;;3.30;99.90;;;;;;4995631;28;20033;-77
2023/12/17 06:10:39;;;;;;;11.60;8.65;;;3.30;99.90;;;;;;5012988;28;20112;-76
2023/12/17 06:13:06;;;;;;;11.32;7.88;;;3.30;99.90;;;;;;5013258;28;20038;-78
2023/12/17 06:15:34;;;;;;;10.05;8.05;;;3.30;99.90;;;;;;5013270;28;20140;-81
2023/12/17 06:18:01;;;;;;;8.50;7.20;;;3.30;99.90;;;;;;5012499;28;20118;-82
2023/12/17 06:20:30;;;;;;;12.23;8.23;;;3.30;99.90;;;;;;5013577;28;20117;-81
2023/12/17 06:22:57;;;;;;;12.43;8.35;;;3.40;99.90;;;;;;4995368;28;20088;-81
2023/12/17 06:25:24;;;;;;;13.18;8.80;;;3.20;99.90;;;;;;4995975;28;20054;-84
2023/12/17 06:27:53;;;;;;;10.63;8.32;;;3.30;99.90;;;;;;5013350;28;20044;-81
2023/12/17 06:30:20;;;;;;;10.65;8.05;;;3.30;99.90;;;;;;5013791;28;20025;-82
2023/12/17 06:32:47;;;;;;;9.68;7.80;;;3.10;99.90;;;;;;5013182;28;20050;-80
2023/12/17 06:35:15;;;;;;;9.82;7.85;;;3.10;99.90;;;;;;5013250;28;20509;-79
2023/12/17 06:37:42;;;;;;;10.70;8.38;;;3.10;99.90;;;;;;5012690;28;20061;-82
2023/12/17 06:40:10;;;;;;;9.32;7.18;;;3.10;99.90;;;;;;5015476;28;20113;-83
2023/12/17 06:42:37;;;;;;;10.63;7.32;;;3.00;99.90;;;;;;5014390;28;20111;-81
2023/12/17 06:45:05;;;;;;;9.65;7.55;;;3.10;99.90;;;;;;5012737;28;20056;-82
2023/12/17 06:47:32;;;;;;;11.43;7.72;;;3.10;99.90;;;;;;5009129;28;20065;-78
2023/12/17 06:50:00;;;;;;;11.15;7.95;;;3.10;99.90;;;;;;5012638;28;20033;-76
2023/12/17 06:52:27;;;;;;;11.27;7.72;;;3.20;99.90;;;;;;5012201;28;20056;-78
2023/12/17 06:54:54;;;;;;;10.27;8.18;;;3.10;99.90;;;;;;5012661;28;20046;-79
2023/12/17 06:57:22;;;;;;;9.75;7.53;;;3.10;99.90;;;;;;5010726;28;20042;-79
2023/12/17 06:59:49;;;;;;;12.02;8.27;;;3.10;99.90;;;;;;5012385;28;20378;-77
2023/12/17 07:02:17;;;;;;;10.63;7.85;;;3.20;99.90;;;;;;5012273;28;20033;-78
2023/12/17 07:04:44;;;;;;;12.43;8.07;;;3.20;99.90;;;;;;4997670;28;20026;-78
2023/12/17 07:07:11;;;;;;;10.10;7.75;;;3.30;99.90;;;;;;5011884;28;20038;-78
2023/12/17 07:09:39;;;;;;;11.02;7.53;;;3.50;99.90;;;;;;5012193;28;20034;-79
2023/12/17 07:12:07;;;;;;;12.13;8.43;;;3.30;99.90;;;;;;5012298;28;20048;-78
2023/12/17 07:14:34;;;;;;;10.10;7.82;;;3.30;99.90;;;;;;5011896;28;20030;-75
2023/12/17 07:17:02;;;;;;;14.02;9.55;;;3.40;99.90;;;;;;4972738;28;20044;-78
2023/12/17 07:19:29;;;;;;;13.25;9.25;;;3.60;99.90;;;;;;5012540;28;20050;-81
2023/12/17 07:21:58;;;;;;;12.55;9.73;;;3.70;99.90;;;;;;5011434;28;20037;-82
2023/12/17 07:24:26;;;;;;;13.07;9.35;;;3.80;99.90;;;;;;5012415;28;20038;-82
2023/12/17 07:26:53;;;;;;;14.75;9.25;;;4.00;99.90;;;;;;5011754;28;20045;-80
2023/12/17 07:29:21;;;;;;;13.70;9.93;;;4.10;99.90;;;;;;5012331;28;20029;-81
2023/12/17 07:31:48;;;;;;;13.35;9.27;;;4.10;99.90;;;;;;5011682;28;20072;-81
2023/12/17 07:34:16;;;;;;;11.85;9.20;;;4.00;99.90;;;;;;5008636;28;20381;-83
2023/12/17 07:36:47;;;;;;;12.77;8.77;;;3.90;99.90;;;;;;5012554;28;20071;-83
2023/12/17 07:39:15;;;;;;;11.85;8.70;;;3.80;99.90;;;;;;5011620;28;20057;-81
2023/12/17 07:41:42;;;;;;;11.90;8.60;;;3.90;99.90;;;;;;5010976;28;20146;-79
2023/12/17 07:44:09;;;;;;;10.65;8.32;;;4.00;99.90;;;;;;5010539;28;20124;-77
2023/12/17 07:46:36;;;;;;;11.35;9.05;;;4.30;99.90;;;;;;5010730;28;20119;-81
2023/12/17 07:49:04;;;;;;;11.13;8.35;;;4.30;99.90;;;;;;4984647;28;20092;-80
2023/12/17 07:51:32;;;;;;;10.30;7.70;;;4.10;99.90;;;;;;5011544;28;20413;-81
2023/12/17 07:53:59;;;;;;;11.82;8.18;;;4.30;99.90;;;;;;5011239;28;20033;-80
2023/12/17 07:56:27;;;;;;;11.30;7.88;;;4.50;99.90;;;;;;5011525;28;20040;-80
2023/12/17 07:58:55;;;;;;;10.02;8.07;;;4.60;99.40;;;;;;5010428;28;20043;-84
2023/12/17 08:01:29;;;;;;;9.88;7.97;;;4.70;99.40;;;;;;5010301;28;20063;-82
2023/12/17 08:03:57;;;;;;;10.95;8.25;;;5.10;99.10;;;;;;5009983;28;20041;-80
2023/12/17 08:06:25;;;;;;;9.60;7.82;;;5.20;98.70;;;;;;5011153;28;20084;-80
2023/12/17 08:08:56;;;;;;;11.05;7.70;;;5.40;98.50;;;;;;5010428;28;20049;-82
2023/12/17 08:11:25;;;;;;;10.55;7.45;;;5.00;97.70;;;;;;5011291;28;20042;-82
2023/12/17 08:13:52;;;;;;;11.88;8.38;;;5.00;98.50;;;;;;5010873;28;20034;-80
2023/12/17 08:16:19;;;;;;;8.90;7.32;;;4.70;98.60;;;;;;5010842;28;20038;-79
2023/12/17 08:18:47;;;;;;;8.00;6.82;;;4.90;98.90;;;;;;4993623;28;20033;-78
2023/12/17 08:21:14;;;;;;;9.02;7.28;;;4.90;98.20;;;;;;4993574;28;20103;-81
2023/12/17 08:23:42;;;;;;;9.50;7.00;;;4.70;98.00;;;;;;4993758;28;20831;-83
2023/12/17 08:26:13;;;;;;;25.67;12.77;;;4.70;98.20;;;;;;5010469;28;20597;-75
2023/12/17 08:28:40;;;;;;;16.02;10.88;;;4.80;98.70;;;;;;5010553;28;20385;-75
2023/12/17 08:31:09;;;;;;;12.90;8.35;;;4.90;98.60;;;;;;5010177;28;21271;-73
2023/12/17 08:33:37;;;;;;;34.85;19.30;;;5.30;99.30;;;;;;5008466;28;20044;-75
2023/12/17 08:36:05;;;;;;;13.23;9.68;;;5.50;97.80;;;;;;5009818;28;20045;-75
2023/12/17 08:38:32;;;;;;;14.13;8.23;;;5.50;98.20;;;;;;5010418;28;20041;-74
2023/12/17 08:41:00;;;;;;;16.92;10.65;;;5.10;97.50;;;;;;5009839;28;20037;-74
2023/12/17 08:43:28;;;;;;;59.97;29.35;;;5.40;97.80;;;;;;5010549;28;20065;-73
2023/12/17 08:45:55;;;;;;;12.07;9.80;;;5.90;97.20;;;;;;5009620;28;20038;-76
2023/12/17 08:48:23;;;;;;;9.85;7.82;;;5.60;96.80;;;;;;5009909;28;20120;-77
2023/12/17 08:50:50;;;;;;;10.02;7.93;;;5.80;97.20;;;;;;5001223;28;20381;-77
2023/12/17 08:53:22;;;;;;;10.80;7.60;;;6.00;96.70;;;;;;5010630;28;20124;-79
2023/12/17 08:55:50;;;;;;;10.38;7.75;;;5.60;96.60;;;;;;5009346;28;20038;-75
2023/12/17 08:58:17;;;;;;;9.65;7.60;;;5.40;96.90;;;;;;5009306;28;20049;-76
2023/12/17 09:00:44;;;;;;;9.35;7.32;;;5.30;96.60;;;;;;4991388;28;20109;-75
2023/12/17 09:03:12;;;;;;;11.27;8.00;;;5.50;96.80;;;;;;5009879;28;20033;-75
2023/12/17 09:05:39;;;;;;;9.55;6.32;;;5.60;96.40;;;;;;5010315;28;20037;-78
2023/12/17 09:08:07;;;;;;;9.73;6.80;;;5.70;95.40;;;;;;5009452;28;20049;-77
2023/12/17 09:10:34;;;;;;;9.23;6.55;;;5.60;95.40;;;;;;5009935;28;20122;-79
2023/12/17 09:13:01;;;;;;;8.68;6.93;;;5.80;95.40;;;;;;5009738;28;20048;-76
2023/12/17 09:15:29;;;;;;;9.77;7.05;;;6.00;95.10;;;;;;5009789;28;20037;-78
2023/12/17 09:17:56;;;;;;;7.57;6.30;;;6.70;94.90;;;;;;5009037;28;20116;-77
2023/12/17 09:20:24;;;;;;;8.73;6.80;;;6.50;94.30;;;;;;4992393;28;20034;-78
2023/12/17 09:22:52;;;;;;;8.98;6.90;;;6.50;94.20;;;;;;5010401;28;20057;-78
2023/12/17 09:25:19;;;;;;;9.77;7.10;;;6.70;93.90;;;;;;5011059;28;20403;-77
2023/12/17 09:27:47;;;;;;;8.15;6.60;;;6.80;94.50;;;;;;5010168;28;20500;-84
2023/12/17 09:30:15;;;;;;;18.77;11.68;;;6.60;94.30;;;;;;5007289;28;20045;-82
2023/12/17 09:32:44;;;;;;;9.38;7.38;;;6.20;94.10;;;;;;5008699;28;20034;-78
2023/12/17 09:35:11;;;;;;;8.70;6.88;;;6.10;94.00;;;;;;5009038;28;20389;-79
2023/12/17 09:37:42;;;;;;;;;;;6.00;94.00;;;;;;5009798;28;20358;-78
2023/12/17 09:40:09;;;;;;;8.95;7.00;;;6.00;94.40;;;;;;4985607;28;19921;-79
2023/12/17 09:42:37;;;;;;;8.63;6.53;;;5.90;94.00;;;;;;4978931;28;20033;-80
2023/12/17 09:45:06;;;;;;;8.38;6.93;;;6.30;94.40;;;;;;5009387;28;21208;-82
2023/12/17 09:47:35;;;;;;;;;;;6.60;94.00;;;;;;5006410;28;20371;-84
2023/12/17 09:50:04;;;;;;;8.38;6.20;;;6.20;93.90;;;;;;5008126;28;19917;-81
2023/12/17 09:52:35;;;;;;;11.45;7.65;;;5.60;94.60;;;;;;5009745;28;20121;-79
2023/12/17 09:55:05;;;;;;;10.30;7.47;;;5.80;94.90;;;;;;4990628;28;20497;-80
2023/12/17 09:57:33;;;;;;;8.20;6.40;;;6.10;94.20;;;;;;4991528;28;20029;-77
2023/12/17 10:00:00;;;;;;;7.95;6.93;;;5.60;94.60;;;;;;5007886;28;20037;-82
2023/12/17 10:02:31;;;;;;;8.82;7.35;;;6.50;94.90;;;;;;5008088;28;20048;-77
2023/12/17 10:05:07;;;;;;;8.02;6.57;;;6.70;94.40;;;;;;5005430;28;20029;-87
2023/12/17 10:07:37;;;;;;;9.77;7.50;;;6.80;93.30;;;;;;5009192;28;20056;-78
2023/12/17 10:10:06;;;;;;;8.77;6.88;;;6.90;93.00;;;;;;5009656;28;20089;-82
2023/12/17 10:12:35;;;;;;;9.70;6.55;;;6.70;93.50;;;;;;4991853;28;20124;-83
2023/12/17 10:15:03;;;;;;;8.35;6.65;;;7.60;92.60;;;;;;4985327;28;20038;-77
2023/12/17 10:17:32;;;;;;;9.05;6.82;;;7.50;92.20;;;;;;4991965;28;20042;-78
2023/12/17 10:20:00;;;;;;;8.65;7.00;;;7.30;92.20;;;;;;5008031;28;20030;-79
2023/12/17 10:22:30;;;;;;;7.78;6.40;;;7.10;92.80;;;;;;4991810;28;20045;-81
2023/12/17 10:24:58;;;;;;;8.65;6.55;;;6.60;93.20;;;;;;5010393;28;20389;-80
2023/12/17 10:27:27;;;;;;;8.25;6.70;;;7.20;92.50;;;;;;4995703;28;20046;-80
2023/12/17 10:29:54;;;;;;;11.45;7.13;;;6.60;92.60;;;;;;5012032;28;20038;-80
2023/12/17 10:32:24;;;;;;;9.75;7.28;;;7.00;93.20;;;;;;4996072;28;20054;-81
2023/12/17 10:34:53;;;;;;;9.35;6.55;;;6.90;92.80;;;;;;5004661;28;20042;-89
2023/12/17 10:37:25;;;;;;;8.77;6.35;;;7.40;92.10;;;;;;5010168;28;20647;-82
2023/12/17 10:39:54;;;;;;;10.02;6.88;;;7.90;91.50;;;;;;5009563;28;20033;-80
2023/12/17 10:42:24;;;;;;;8.75;6.93;;;6.90;92.90;;;;;;5011953;28;20056;-83
2023/12/17 10:44:54;;;;;;;8.20;6.45;;;6.30;92.90;;;;;;5007266;28;20554;-82
2023/12/17 10:47:24;;;;;;;9.88;6.95;;;6.80;93.40;;;;;;4967000;28;20054;-78
2023/12/17 10:49:57;;;;;;;66.22;37.58;;;7.50;92.40;;;;;;4957713;28;20493;-75
2023/12/17 10:52:25;;;;;;;122.90;60.80;;;8.30;92.80;;;;;;4993330;28;20038;-80
2023/12/17 10:54:55;;;;;;;173.93;83.65;;;8.40;92.00;;;;;;4971930;28;20043;-79
2023/12/17 10:57:24;;;;;;;18.73;16.08;;;7.80;91.90;;;;;;4975008;28;20507;-78
2023/12/17 10:59:54;;;;;;;12.00;9.00;;;8.10;91.80;;;;;;4992038;28;20026;-75
2023/12/17 11:02:26;;;;;;;8.50;6.65;;;8.50;90.90;;;;;;4992413;28;20520;-79
2023/12/17 11:04:56;;;;;;;10.05;7.40;;;13.00;83.30;;;;;;4992049;28;20026;-80
2023/12/17 11:07:23;;;;;;;;;;;14.30;74.80;;;;;;4991905;28;20120;-77
2023/12/17 11:10:10;;;;;;;12.85;8.52;;;17.10;66.90;;;;;;4991223;28;20323;-77
2023/12/17 11:12:44;;;;;;;7.60;5.55;;;18.60;61.20;;;;;;4988844;28;20034;-77
2023/12/17 11:15:12;;;;;;;8.55;5.40;;;16.70;62.40;;;;;;4989046;28;20060;-79
2023/12/17 11:17:40;;;;;;;8.52;5.80;;;11.90;67.30;;;;;;4991217;28;20026;-79
2023/12/17 11:20:13;;;;;;;9.57;5.88;;;11.80;73.70;;;;;;4987460;28;20858;-78
2023/12/17 11:22:40;;;;;;;8.45;5.70;;;16.40;63.20;;;;;;4991806;28;20069;-80
2023/12/17 11:25:11;;;;;;;9.98;5.72;;;14.00;63.30;;;;;;4991993;28;20114;-75
2023/12/17 11:27:40;;;;;;;9.65;5.85;;;13.10;69.80;;;;;;4987202;28;20038;-75
2023/12/17 11:30:31;;;;;;;8.77;5.65;;;15.60;63.40;;;;;;4990854;28;20359;-79
2023/12/17 11:33:02;;;;;;;8.85;6.57;;;17.50;56.70;;;;;;4990793;28;20089;-76
2023/12/17 11:35:32;;;;;;;9.65;6.97;;;16.70;57.20;;;;;;4990236;28;20088;-79
2023/12/17 11:38:03;;;;;;;9.15;6.93;;;13.80;60.90;;;;;;4991415;28;20374;-79
2023/12/17 11:40:30;;;;;;;8.90;7.07;;;12.90;64.70;;;;;;4974520;28;20046;-79
2023/12/17 11:43:03;;;;;;;8.98;6.63;;;10.70;67.00;;;;;;4974335;28;20275;-68
2023/12/17 11:45:37;;;;;;;12.05;6.95;;;9.00;73.40;;;;;;4977553;28;20371;-72
2023/12/17 11:48:14;;;;;;;9.57;6.68;;;9.30;75.00;;;;;;4997030;28;20033;-74
2023/12/17 11:50:59;;;;;;;14.25;6.82;;;9.30;75.30;;;;;;4996520;28;20046;-73
2023/12/17 11:53:27;;;;;;;11.63;7.43;;;10.10;76.10;;;;;;4997565;28;20372;-75
2023/12/17 11:55:56;;;;;;;8.68;6.03;;;11.30;74.30;;;;;;4997466;28;20049;-79
2023/12/17 11:58:26;;;;;;;10.95;7.15;;;11.90;69.40;;;;;;5000206;28;20041;-78
2023/12/17 12:01:02;;;;;;;9.57;6.70;;;10.20;70.90;;;;;;5000740;28;20053;-76
2023/12/17 12:03:30;;;;;;;10.43;6.75;;;9.60;73.80;;;;;;4994323;28;20042;-75
2023/12/17 12:06:08;;;;;;;8.77;6.40;;;11.10;74.20;;;;;;4999644;28;20038;-73
2023/12/17 12:08:40;;;;;;;10.68;6.70;;;14.30;67.30;;;;;;4999084;28;20054;-75
2023/12/17 12:11:34;;;;;;;9.93;6.73;;;14.10;65.60;;;;;;4993184;28;20377;-74
2023/12/17 12:14:02;;;;;;;8.77;6.47;;;18.00;59.70;;;;;;5001828;28;20206;-75
2023/12/17 12:16:40;;;;;;;11.35;6.90;;;20.80;56.20;;;;;;5000029;28;20373;-74
2023/12/17 12:19:09;;;;;;;9.15;6.80;;;15.90;59.60;;;;;;5001507;28;20035;-76
2023/12/17 12:21:49;;;;;;;65.68;37.85;;;18.80;58.60;;;;;;5002509;28;20384;-77
2023/12/17 12:24:21;;;;;;;14.93;10.38;;;20.30;55.00;;;;;;4996063;28;20050;-80
2023/12/17 12:26:50;;;;;;;10.77;7.07;;;19.30;52.60;;;;;;4983396;28;20034;-80
2023/12/17 12:29:19;;;;;;;109.85;57.88;;;19.50;55.00;;;;;;4975891;28;20525;-79
2023/12/17 12:31:52;;;;;;;31.08;21.00;;;21.20;52.80;;;;;;4995377;28;20126;-77
2023/12/17 12:34:20;;;;;;;34.05;22.58;;;22.40;51.00;;;;;;4974204;28;20447;-77
2023/12/17 12:36:48;;;;;;;17.77;11.90;;;22.90;48.60;;;;;;4997979;28;20373;-75
2023/12/17 12:39:19;;;;;;;83.72;50.67;;;22.60;49.00;;;;;;4995361;28;20477;-76
2023/12/17 12:41:49;;;;;;;63.75;45.72;;;23.90;48.00;;;;;;5000116;28;20038;-76
2023/12/17 12:44:17;;;;;;;14.60;10.47;;;23.70;46.10;;;;;;4998055;28;20125;-76
2023/12/17 12:46:49;;;;;;;12.40;7.78;;;23.60;46.70;;;;;;4998296;28;20493;-75
2023/12/17 12:49:17;;;;;;;9.98;7.10;;;22.10;46.80;;;;;;4997246;28;20381;-79
2023/12/17 12:51:47;;;;;;;25.45;18.55;;;17.70;50.30;;;;;;4983054;28;20646;-75
2023/12/17 12:54:15;;;;;;;12.00;8.05;;;17.30;52.90;;;;;;4998781;28;20048;-75
2023/12/17 12:56:43;;;;;;;52.15;33.83;;;14.90;53.90;;;;;;4999131;28;20069;-81